createdAt,value
2022-11-24T00:02:58.902Z,80.67
2022-11-24T00:08:21.977Z,84.75
2022-11-24T00:13:45.707Z,87.78
2022-11-24T00:19:18.395Z,90.67
2022-11-24T00:24:38.012Z,63.10
2022-11-24T00:30:02.230Z,93.62
2022-11-24T00:35:27.245Z,86.70
2022-11-24T00:40:50.716Z,88.25
2022-11-24T00:46:13.893Z,77.42
2022-11-24T00:51:39.395Z,78.05
2022-11-24T00:57:03.660Z,79.62
2022-11-24T01:02:27.371Z,80.50
2022-11-24T01:07:50.686Z,80.97
2022-11-24T01:13:13.827Z,78.30
2022-11-24T01:18:36.479Z,83.62
2022-11-24T01:23:59.366Z,81.78
2022-11-24T01:29:23.707Z,86.37
2022-11-24T01:34:48.463Z,87.95
2022-11-24T01:40:13.907Z,81.57
2022-11-24T01:45:47.997Z,92.55
2022-11-24T01:51:20.577Z,88.67
2022-11-24T01:56:44.638Z,81.05
2022-11-24T02:02:09.770Z,85.40
2022-11-24T02:07:34.632Z,78.85
2022-11-24T02:13:01.277Z,87.72
2022-11-24T02:18:24.010Z,82.80
2022-11-24T02:24:03.087Z,85.10
2022-11-24T02:29:27.354Z,72.80
2022-11-24T02:34:50.125Z,85.47
2022-11-24T02:40:13.410Z,84.13
2022-11-24T02:45:38.011Z,81.78
2022-11-24T02:51:00.823Z,77.45
2022-11-24T02:56:23.613Z,84.87
2022-11-24T03:01:46.420Z,81.95
2022-11-24T03:07:10.971Z,86.08
2022-11-24T03:12:33.863Z,85.45
2022-11-24T03:18:00.106Z,79.77
2022-11-24T03:23:23.476Z,75.15
2022-11-24T03:28:46.339Z,83.07
2022-11-24T03:34:10.922Z,82.88
2022-11-24T03:39:35.057Z,80.85
2022-11-24T03:45:04.210Z,80.05
2022-11-24T03:50:25.089Z,82.27
2022-11-24T03:55:50.919Z,75.80
2022-11-24T04:01:14.227Z,75.62
2022-11-24T04:06:38.303Z,75.62
2022-11-24T04:12:21.263Z,74.55
2022-11-24T04:17:45.851Z,90.35
2022-11-24T04:23:09.323Z,85.22
2022-11-24T04:28:32.055Z,85.90
2022-11-24T04:33:54.728Z,82.10
2022-11-24T04:39:20.140Z,79.20
2022-11-24T04:44:43.919Z,91.95
2022-11-24T04:50:08.433Z,87.92
2022-11-24T04:55:32.099Z,106.52
2022-11-24T05:00:54.842Z,102.75
2022-11-24T05:06:18.966Z,94.03
2022-11-24T05:11:43.123Z,94.47
2022-11-24T05:17:05.948Z,99.87
2022-11-24T05:22:29.281Z,95.90
2022-11-24T05:27:51.943Z,92.25
2022-11-24T05:33:19.604Z,94.05
2022-11-24T05:38:53.977Z,100.50
2022-11-24T05:44:16.822Z,100.97
2022-11-24T05:49:39.937Z,99.33
2022-11-24T05:55:02.312Z,105.23
2022-11-24T06:00:25.365Z,111.83
2022-11-24T06:05:49.770Z,115.27
2022-11-24T06:11:18.637Z,116.57
2022-11-24T06:16:41.242Z,115.07
2022-11-24T06:22:03.626Z,111.90
2022-11-24T06:27:26.308Z,102.30
2022-11-24T06:32:49.883Z,98.37
2022-11-24T06:38:13.283Z,95.83
2022-11-24T06:43:36.133Z,106.20
2022-11-24T06:49:00.226Z,93.65
2022-11-24T06:54:25.595Z,107.97
2022-11-24T06:59:47.879Z,92.40
2022-11-24T07:05:10.227Z,93.10
2022-11-24T07:10:32.551Z,84.83
2022-11-24T07:15:56.779Z,94.20
2022-11-24T07:21:20.783Z,99.03
2022-11-24T07:26:43.747Z,91.60
2022-11-24T07:32:06.107Z,93.15
2022-11-24T07:37:31.503Z,90.92
2022-11-24T07:42:53.436Z,92.33
2022-11-24T07:48:15.780Z,97.97
2022-11-24T07:53:38.338Z,101.60
2022-11-24T07:59:01.195Z,97.40
2022-11-24T08:04:23.891Z,110.77
2022-11-24T08:09:46.109Z,110.45
2022-11-24T08:15:11.118Z,111.12
2022-11-24T08:20:33.127Z,113.72
2022-11-24T08:25:57.264Z,114.88
2022-11-24T08:31:30.805Z,112.42
2022-11-24T08:36:53.109Z,108.87
2022-11-24T08:42:15.571Z,102.35
2022-11-24T08:47:38.261Z,97.20
2022-11-24T08:53:00.534Z,94.13
2022-11-24T08:58:24.958Z,105.53
2022-11-24T09:03:50.718Z,116.40
2022-11-24T09:09:16.267Z,88.62
2022-11-24T09:14:38.581Z,90.25
2022-11-24T09:25:40.332Z,97.47
2022-11-24T09:31:02.588Z,87.70
2022-11-24T09:36:27.179Z,96.95
2022-11-24T09:42:00.288Z,92.85
2022-11-24T09:47:44.374Z,94.03
2022-11-24T09:53:37.018Z,99.97
2022-11-24T09:59:07.588Z,95.60
2022-11-24T10:04:46.512Z,107.73
2022-11-24T10:10:13.990Z,98.73
2022-11-24T10:16:11.777Z,98.43
2022-11-24T10:21:48.117Z,110.55
2022-11-24T10:27:18.909Z,109.00
2022-11-24T10:32:45.439Z,110.28
2022-11-24T10:38:32.441Z,107.35
2022-11-24T10:43:55.954Z,106.58
2022-11-24T10:49:26.589Z,110.60
2022-11-24T10:55:05.290Z,116.82
2022-11-24T11:00:37.390Z,115.92
2022-11-24T11:06:19.270Z,114.15
2022-11-24T11:11:44.960Z,109.10
2022-11-24T11:17:10.904Z,112.03
2022-11-24T11:22:38.002Z,118.37
2022-11-24T11:28:08.638Z,122.93
2022-11-24T11:39:06.867Z,125.20
2022-11-24T11:44:49.050Z,111.95
2022-11-24T11:50:13.148Z,118.13
2022-11-24T11:55:52.385Z,124.17
2022-11-24T12:01:26.434Z,114.67
2022-11-24T12:07:15.829Z,113.80
2022-11-24T12:13:11.118Z,95.77
2022-11-24T12:19:02.831Z,101.22
2022-11-24T12:24:31.318Z,107.50
2022-11-24T12:30:01.543Z,113.17
2022-11-24T12:35:44.067Z,101.20
2022-11-24T12:41:43.138Z,124.47
2022-11-24T12:47:19.574Z,112.37
2022-11-24T12:52:59.303Z,103.47
2022-11-24T12:58:51.444Z,110.73
2022-11-24T13:04:54.772Z,106.60
2022-11-24T13:10:57.873Z,111.80
2022-11-24T13:16:59.578Z,126.13
2022-11-24T13:22:05.314Z,113.67
2022-11-24T13:27:48.983Z,128.20
2022-11-24T13:33:37.136Z,118.53
2022-11-24T13:39:02.143Z,110.77
2022-11-24T13:44:39.797Z,113.57
2022-11-24T13:50:03.182Z,116.43
2022-11-24T13:55:39.439Z,115.50
2022-11-24T14:01:41.356Z,122.63
2022-11-24T14:07:11.356Z,122.67
2022-11-24T14:12:39.105Z,115.03
2022-11-24T14:18:01.682Z,124.45
2022-11-24T14:23:25.863Z,119.70
2022-11-24T14:28:48.306Z,108.12
2022-11-24T14:34:26.642Z,118.00
2022-11-24T14:39:50.647Z,122.98
2022-11-24T14:45:17.115Z,134.57
2022-11-24T14:50:41.226Z,126.55
2022-11-24T14:56:14.960Z,140.00
2022-11-24T15:01:47.833Z,145.77
2022-11-24T15:07:32.080Z,140.25
2022-11-24T15:13:03.837Z,153.18
2022-11-24T15:18:40.451Z,150.97
2022-11-24T15:24:24.898Z,145.28
2022-11-24T15:29:47.415Z,137.55
2022-11-24T15:35:14.807Z,134.82
2022-11-24T15:40:37.901Z,135.30
2022-11-24T15:46:00.591Z,140.32
2022-11-24T15:51:27.021Z,144.20
2022-11-24T15:56:53.292Z,143.07
2022-11-24T16:02:16.139Z,132.25
2022-11-24T16:07:38.490Z,140.70
2022-11-24T16:13:00.739Z,145.23
2022-11-24T16:18:24.178Z,137.07
2022-11-24T16:23:48.353Z,131.67
2022-11-24T16:29:10.968Z,135.13
2022-11-24T16:34:34.875Z,138.62
2022-11-24T16:39:58.782Z,236.60
2022-11-24T16:45:23.490Z,131.35
2022-11-24T16:50:48.328Z,134.05
2022-11-24T16:56:12.651Z,129.85
2022-11-24T17:01:36.666Z,127.58
2022-11-24T17:06:59.502Z,135.93
2022-11-24T17:12:21.833Z,123.15
2022-11-24T17:18:08.360Z,120.33
2022-11-24T17:23:09.217Z,117.97
2022-11-24T17:28:32.269Z,110.32
2022-11-24T17:33:58.931Z,122.60
2022-11-24T17:39:25.181Z,120.77
2022-11-24T17:44:47.667Z,129.00
2022-11-24T17:50:10.391Z,128.53
2022-11-24T17:55:32.876Z,128.45
2022-11-24T18:00:56.079Z,132.67
2022-11-24T18:06:29.142Z,119.35
2022-11-24T18:11:52.924Z,136.13
2022-11-24T18:17:15.219Z,121.60
2022-11-24T18:23:04.193Z,130.87
2022-11-24T18:28:01.514Z,137.50
2022-11-24T18:33:24.958Z,124.42
2022-11-24T18:38:49.146Z,139.95
2022-11-24T18:44:13.755Z,146.00
2022-11-24T18:49:36.177Z,145.00
2022-11-24T18:55:00.806Z,146.57
2022-11-24T19:00:25.972Z,150.82
2022-11-24T19:05:48.779Z,163.50
2022-11-24T19:11:12.333Z,153.15
2022-11-24T19:16:37.109Z,144.95
2022-11-24T19:21:59.909Z,156.32
2022-11-24T19:27:23.505Z,160.93
2022-11-24T19:32:45.985Z,159.00
2022-11-24T19:38:12.331Z,162.90
2022-11-24T19:43:33.654Z,154.10
2022-11-24T19:48:59.615Z,148.97
2022-11-24T19:54:23.680Z,144.15
2022-11-24T19:59:46.153Z,114.03
2022-11-24T20:05:08.438Z,136.07
2022-11-24T20:10:31.163Z,119.53
2022-11-24T20:15:53.408Z,123.72
2022-11-24T20:21:22.988Z,109.55
2022-11-24T20:26:49.343Z,166.03
2022-11-24T20:32:15.407Z,128.82
2022-11-24T20:37:38.159Z,130.50
2022-11-24T20:43:00.944Z,124.20
2022-11-24T20:48:23.265Z,121.07
2022-11-24T20:53:45.908Z,128.38
2022-11-24T20:59:09.349Z,123.83
2022-11-24T21:04:37.185Z,116.10
2022-11-24T21:09:59.692Z,116.67
2022-11-24T21:15:24.003Z,115.30
2022-11-24T21:20:46.933Z,106.80
2022-11-24T21:26:16.840Z,136.33
2022-11-24T21:31:40.809Z,115.37
2022-11-24T21:37:03.236Z,111.35
2022-11-24T21:42:25.444Z,101.53
2022-11-24T21:47:47.786Z,97.27
2022-11-24T21:53:11.956Z,97.43
2022-11-24T21:58:34.798Z,93.40
2022-11-24T22:03:59.258Z,96.83
2022-11-24T22:09:22.865Z,90.93
2022-11-24T22:14:45.781Z,94.75
2022-11-24T22:20:09.080Z,80.03
2022-11-24T22:25:31.259Z,86.92
2022-11-24T22:30:54.204Z,84.58
2022-11-24T22:36:18.867Z,80.32
2022-11-24T22:41:41.967Z,76.22
2022-11-24T22:47:04.164Z,78.37
2022-11-24T22:52:27.333Z,98.92
2022-11-24T22:57:52.221Z,101.38
2022-11-24T23:03:13.638Z,102.60
2022-11-24T23:08:36.532Z,101.65
2022-11-24T23:14:02.446Z,94.83
2022-11-24T23:19:25.623Z,91.72
2022-11-24T23:24:48.453Z,99.83
2022-11-24T23:30:10.981Z,105.12
2022-11-24T23:35:33.204Z,104.15
2022-11-24T23:40:55.417Z,107.55
2022-11-24T23:46:24.371Z,94.60
2022-11-24T23:51:47.734Z,92.63
2022-11-24T23:57:10.035Z,90.47
